sensor_id;sensor_type;location;lat;lon;timestamp;P1;durP1;ratioP1;P2;durP2;ratioP2
74674;SDS011;63200;48.810;12.352;2023-02-25T00:01:28;0.90;;;0.90;;
74674;SDS011;63200;48.810;12.352;2023-02-25T00:03:56;1.70;;;1.25;;
74674;SDS011;63200;48.810;12.352;2023-02-25T00:06:22;1.20;;;1.10;;
74674;SDS011;63200;48.810;12.352;2023-02-25T00:08:48;1.15;;;1.10;;
74674;SDS011;63200;48.810;12.352;2023-02-25T00:11:14;1.05;;;1.05;;
74674;SDS011;63200;48.810;12.352;2023-02-25T00:13:41;1.05;;;1.05;;
74674;SDS011;63200;48.810;12.352;2023-02-25T00:16:08;1.38;;;1.10;;
74674;SDS011;63200;48.810;12.352;2023-02-25T00:18:34;1.77;;;1.13;;
74674;SDS011;63200;48.810;12.352;2023-02-25T00:21:02;1.17;;;0.85;;
74674;SDS011;63200;48.810;12.352;2023-02-25T00:23:30;1.00;;;1.00;;
74674;SDS011;63200;48.810;12.352;2023-02-25T00:25:59;1.48;;;1.38;;
74674;SDS011;63200;48.810;12.352;2023-02-25T00:28:26;3.47;;;1.23;;
74674;SDS011;63200;48.810;12.352;2023-02-25T00:30:52;1.63;;;1.05;;
74674;SDS011;63200;48.810;12.352;2023-02-25T00:33:17;1.30;;;1.17;;
74674;SDS011;63200;48.810;12.352;2023-02-25T00:35:42;1.15;;;1.08;;
74674;SDS011;63200;48.810;12.352;2023-02-25T00:38:08;3.00;;;0.73;;
74674;SDS011;63200;48.810;12.352;2023-02-25T00:40:36;1.00;;;1.00;;
74674;SDS011;63200;48.810;12.352;2023-02-25T00:43:02;1.00;;;1.00;;
74674;SDS011;63200;48.810;12.352;2023-02-25T00:45:28;3.33;;;1.48;;
74674;SDS011;63200;48.810;12.352;2023-02-25T00:47:53;1.58;;;1.50;;
74674;SDS011;63200;48.810;12.352;2023-02-25T00:50:19;1.50;;;1.50;;
74674;SDS011;63200;48.810;12.352;2023-02-25T00:52:44;1.80;;;1.65;;
74674;SDS011;63200;48.810;12.352;2023-02-25T00:55:10;1.58;;;1.50;;
74674;SDS011;63200;48.810;12.352;2023-02-25T00:57:36;1.98;;;1.63;;
74674;SDS011;63200;48.810;12.352;2023-02-25T01:00:02;2.63;;;1.88;;
74674;SDS011;63200;48.810;12.352;2023-02-25T01:02:34;3.65;;;1.58;;
74674;SDS011;63200;48.810;12.352;2023-02-25T01:04:59;1.90;;;1.80;;
74674;SDS011;63200;48.810;12.352;2023-02-25T01:07:25;1.50;;;1.40;;
74674;SDS011;63200;48.810;12.352;2023-02-25T01:09:53;2.10;;;2.00;;
74674;SDS011;63200;48.810;12.352;2023-02-25T01:12:19;3.08;;;1.67;;
74674;SDS011;63200;48.810;12.352;2023-02-25T01:14:44;1.98;;;1.88;;
74674;SDS011;63200;48.810;12.352;2023-02-25T01:17:10;5.03;;;2.17;;
74674;SDS011;63200;48.810;12.352;2023-02-25T01:19:35;2.88;;;1.98;;
74674;SDS011;63200;48.810;12.352;2023-02-25T01:22:00;2.47;;;1.45;;
74674;SDS011;63200;48.810;12.352;2023-02-25T01:24:27;3.22;;;1.98;;
74674;SDS011;63200;48.810;12.352;2023-02-25T01:26:55;2.97;;;2.30;;
74674;SDS011;63200;48.810;12.352;2023-02-25T01:29:24;1.13;;;1.10;;
74674;SDS011;63200;48.810;12.352;2023-02-25T01:31:55;2.60;;;2.40;;
74674;SDS011;63200;48.810;12.352;2023-02-25T01:34:23;1.90;;;1.80;;
74674;SDS011;63200;48.810;12.352;2023-02-25T01:36:49;2.72;;;2.53;;
74674;SDS011;63200;48.810;12.352;2023-02-25T01:39:16;2.72;;;2.53;;
74674;SDS011;63200;48.810;12.352;2023-02-25T01:41:42;3.20;;;2.30;;
74674;SDS011;63200;48.810;12.352;2023-02-25T01:44:11;3.03;;;2.65;;
74674;SDS011;63200;48.810;12.352;2023-02-25T01:46:43;3.65;;;3.10;;
74674;SDS011;63200;48.810;12.352;2023-02-25T01:49:11;5.35;;;2.90;;
74674;SDS011;63200;48.810;12.352;2023-02-25T01:51:41;4.32;;;3.00;;
74674;SDS011;63200;48.810;12.352;2023-02-25T01:54:09;3.97;;;1.77;;
74674;SDS011;63200;48.810;12.352;2023-02-25T01:56:36;1.73;;;1.63;;
74674;SDS011;63200;48.810;12.352;2023-02-25T01:59:04;1.65;;;1.52;;
74674;SDS011;63200;48.810;12.352;2023-02-25T02:01:30;2.45;;;2.25;;
74674;SDS011;63200;48.810;12.352;2023-02-25T02:03:59;1.35;;;1.25;;
74674;SDS011;63200;48.810;12.352;2023-02-25T02:06:32;4.88;;;3.03;;
74674;SDS011;63200;48.810;12.352;2023-02-25T02:09:01;2.72;;;2.50;;
74674;SDS011;63200;48.810;12.352;2023-02-25T02:11:28;4.82;;;2.97;;
74674;SDS011;63200;48.810;12.352;2023-02-25T02:13:55;1.60;;;1.50;;
74674;SDS011;63200;48.810;12.352;2023-02-25T02:25:08;3.03;;;2.45;;
74674;SDS011;63200;48.810;12.352;2023-02-25T02:28:00;3.65;;;3.30;;
74674;SDS011;63200;48.810;12.352;2023-02-25T02:30:37;5.18;;;3.40;;
74674;SDS011;63200;48.810;12.352;2023-02-25T02:33:28;4.38;;;3.05;;
74674;SDS011;63200;48.810;12.352;2023-02-25T02:39:03;2.92;;;1.98;;
74674;SDS011;63200;48.810;12.352;2023-02-25T02:44:45;3.13;;;2.80;;
74674;SDS011;63200;48.810;12.352;2023-02-25T02:47:22;3.35;;;2.85;;
74674;SDS011;63200;48.810;12.352;2023-02-25T02:50:11;5.18;;;2.85;;
74674;SDS011;63200;48.810;12.352;2023-02-25T02:52:44;4.47;;;3.33;;
74674;SDS011;63200;48.810;12.352;2023-02-25T02:55:17;11.73;;;4.80;;
74674;SDS011;63200;48.810;12.352;2023-02-25T02:57:46;8.07;;;3.42;;
74674;SDS011;63200;48.810;12.352;2023-02-25T03:00:14;1.95;;;1.60;;
74674;SDS011;63200;48.810;12.352;2023-02-25T03:02:54;1.65;;;1.25;;
74674;SDS011;63200;48.810;12.352;2023-02-25T03:05:26;2.13;;;1.90;;
74674;SDS011;63200;48.810;12.352;2023-02-25T03:08:02;2.58;;;2.38;;
74674;SDS011;63200;48.810;12.352;2023-02-25T03:10:32;2.17;;;1.50;;
74674;SDS011;63200;48.810;12.352;2023-02-25T03:12:58;4.22;;;2.97;;
74674;SDS011;63200;48.810;12.352;2023-02-25T03:15:23;2.70;;;1.90;;
74674;SDS011;63200;48.810;12.352;2023-02-25T03:17:52;5.68;;;2.33;;
74674;SDS011;63200;48.810;12.352;2023-02-25T03:20:35;3.83;;;2.72;;
74674;SDS011;63200;48.810;12.352;2023-02-25T03:23:07;1.20;;;1.20;;
74674;SDS011;63200;48.810;12.352;2023-02-25T03:25:40;2.90;;;2.25;;
74674;SDS011;63200;48.810;12.352;2023-02-25T03:28:30;2.75;;;2.20;;
74674;SDS011;63200;48.810;12.352;2023-02-25T03:31:08;1.98;;;1.75;;
74674;SDS011;63200;48.810;12.352;2023-02-25T03:33:42;2.53;;;2.23;;
74674;SDS011;63200;48.810;12.352;2023-02-25T03:36:21;6.30;;;1.67;;
74674;SDS011;63200;48.810;12.352;2023-02-25T03:39:10;2.65;;;2.10;;
74674;SDS011;63200;48.810;12.352;2023-02-25T03:41:41;1.83;;;1.73;;
74674;SDS011;63200;48.810;12.352;2023-02-25T03:44:14;2.38;;;1.70;;
74674;SDS011;63200;48.810;12.352;2023-02-25T03:46:44;1.23;;;1.13;;
74674;SDS011;63200;48.810;12.352;2023-02-25T03:49:13;2.90;;;1.50;;
74674;SDS011;63200;48.810;12.352;2023-02-25T03:51:43;4.43;;;1.53;;
74674;SDS011;63200;48.810;12.352;2023-02-25T03:54:12;3.23;;;2.13;;
74674;SDS011;63200;48.810;12.352;2023-02-25T03:56:44;2.22;;;0.95;;
74674;SDS011;63200;48.810;12.352;2023-02-25T03:59:13;7.50;;;2.40;;
74674;SDS011;63200;48.810;12.352;2023-02-25T04:01:39;3.30;;;1.60;;
74674;SDS011;63200;48.810;12.352;2023-02-25T04:04:06;2.40;;;2.10;;
74674;SDS011;63200;48.810;12.352;2023-02-25T04:06:31;3.67;;;2.60;;
74674;SDS011;63200;48.810;12.352;2023-02-25T04:08:57;2.67;;;2.07;;
74674;SDS011;63200;48.810;12.352;2023-02-25T04:11:22;2.77;;;2.30;;
74674;SDS011;63200;48.810;12.352;2023-02-25T04:13:48;5.50;;;1.70;;
74674;SDS011;63200;48.810;12.352;2023-02-25T04:16:13;2.55;;;1.80;;
74674;SDS011;63200;48.810;12.352;2023-02-25T04:18:38;1.58;;;1.48;;
74674;SDS011;63200;48.810;12.352;2023-02-25T04:21:07;3.45;;;2.17;;
74674;SDS011;63200;48.810;12.352;2023-02-25T04:23:33;2.78;;;1.33;;
74674;SDS011;63200;48.810;12.352;2023-02-25T04:25:59;1.38;;;1.05;;
74674;SDS011;63200;48.810;12.352;2023-02-25T04:28:25;4.15;;;2.20;;
74674;SDS011;63200;48.810;12.352;2023-02-25T04:30:50;1.17;;;0.85;;
74674;SDS011;63200;48.810;12.352;2023-02-25T04:33:15;3.22;;;2.38;;
74674;SDS011;63200;48.810;12.352;2023-02-25T04:35:41;3.53;;;1.90;;
74674;SDS011;63200;48.810;12.352;2023-02-25T04:38:06;3.17;;;2.63;;
74674;SDS011;63200;48.810;12.352;2023-02-25T04:40:32;2.45;;;1.88;;
74674;SDS011;63200;48.810;12.352;2023-02-25T04:42:58;5.00;;;2.80;;
74674;SDS011;63200;48.810;12.352;2023-02-25T04:45:25;7.85;;;2.50;;
74674;SDS011;63200;48.810;12.352;2023-02-25T04:47:54;3.85;;;2.40;;
74674;SDS011;63200;48.810;12.352;2023-02-25T04:50:22;2.42;;;1.80;;
74674;SDS011;63200;48.810;12.352;2023-02-25T04:52:48;4.30;;;2.55;;
74674;SDS011;63200;48.810;12.352;2023-02-25T04:55:13;4.07;;;1.93;;
74674;SDS011;63200;48.810;12.352;2023-02-25T04:57:40;2.50;;;2.30;;
74674;SDS011;63200;48.810;12.352;2023-02-25T05:00:13;2.03;;;1.92;;
74674;SDS011;63200;48.810;12.352;2023-02-25T05:02:41;1.30;;;1.17;;
74674;SDS011;63200;48.810;12.352;2023-02-25T05:05:07;2.65;;;2.45;;
74674;SDS011;63200;48.810;12.352;2023-02-25T05:07:33;4.72;;;2.40;;
74674;SDS011;63200;48.810;12.352;2023-02-25T05:09:58;2.43;;;2.10;;
74674;SDS011;63200;48.810;12.352;2023-02-25T05:12:23;3.60;;;1.88;;
74674;SDS011;63200;48.810;12.352;2023-02-25T05:14:49;1.30;;;1.20;;
74674;SDS011;63200;48.810;12.352;2023-02-25T05:17:14;4.72;;;1.77;;
74674;SDS011;63200;48.810;12.352;2023-02-25T05:19:39;4.25;;;2.38;;
74674;SDS011;63200;48.810;12.352;2023-02-25T05:22:05;3.57;;;1.93;;
74674;SDS011;63200;48.810;12.352;2023-02-25T05:24:31;2.80;;;2.57;;
74674;SDS011;63200;48.810;12.352;2023-02-25T05:26:56;2.13;;;1.03;;
74674;SDS011;63200;48.810;12.352;2023-02-25T05:29:21;7.43;;;3.47;;
74674;SDS011;63200;48.810;12.352;2023-02-25T05:31:46;3.30;;;2.67;;
74674;SDS011;63200;48.810;12.352;2023-02-25T05:34:15;1.43;;;1.43;;
74674;SDS011;63200;48.810;12.352;2023-02-25T05:36:40;3.95;;;2.70;;
74674;SDS011;63200;48.810;12.352;2023-02-25T05:39:06;8.95;;;2.85;;
74674;SDS011;63200;48.810;12.352;2023-02-25T05:41:31;5.23;;;2.80;;
74674;SDS011;63200;48.810;12.352;2023-02-25T05:43:56;7.45;;;3.00;;
74674;SDS011;63200;48.810;12.352;2023-02-25T05:46:22;1.60;;;1.50;;
74674;SDS011;63200;48.810;12.352;2023-02-25T05:48:47;3.83;;;1.42;;
74674;SDS011;63200;48.810;12.352;2023-02-25T05:51:14;5.18;;;2.38;;
74674;SDS011;63200;48.810;12.352;2023-02-25T05:53:42;2.58;;;1.30;;
74674;SDS011;63200;48.810;12.352;2023-02-25T05:56:10;3.15;;;1.80;;
74674;SDS011;63200;48.810;12.352;2023-02-25T05:58:37;4.10;;;2.15;;
74674;SDS011;63200;48.810;12.352;2023-02-25T06:01:06;4.90;;;1.98;;
74674;SDS011;63200;48.810;12.352;2023-02-25T06:03:35;5.10;;;2.47;;
74674;SDS011;63200;48.810;12.352;2023-02-25T06:06:01;4.90;;;2.73;;
74674;SDS011;63200;48.810;12.352;2023-02-25T06:08:26;4.63;;;2.80;;
74674;SDS011;63200;48.810;12.352;2023-02-25T06:10:52;1.40;;;1.27;;
74674;SDS011;63200;48.810;12.352;2023-02-25T06:13:17;3.10;;;1.93;;
74674;SDS011;63200;48.810;12.352;2023-02-25T06:15:42;3.87;;;1.87;;
74674;SDS011;63200;48.810;12.352;2023-02-25T06:18:08;4.95;;;2.22;;
74674;SDS011;63200;48.810;12.352;2023-02-25T06:20:34;3.30;;;2.03;;
74674;SDS011;63200;48.810;12.352;2023-02-25T06:22:59;1.23;;;1.20;;
74674;SDS011;63200;48.810;12.352;2023-02-25T06:25:25;5.43;;;1.33;;
74674;SDS011;63200;48.810;12.352;2023-02-25T06:27:54;2.00;;;1.47;;
74674;SDS011;63200;48.810;12.352;2023-02-25T06:30:25;5.25;;;1.35;;
74674;SDS011;63200;48.810;12.352;2023-02-25T06:32:52;5.63;;;2.27;;
74674;SDS011;63200;48.810;12.352;2023-02-25T06:35:17;3.28;;;1.00;;
74674;SDS011;63200;48.810;12.352;2023-02-25T06:37:47;4.47;;;1.90;;
74674;SDS011;63200;48.810;12.352;2023-02-25T06:40:13;6.00;;;1.83;;
74674;SDS011;63200;48.810;12.352;2023-02-25T06:42:39;3.20;;;1.25;;
74674;SDS011;63200;48.810;12.352;2023-02-25T06:45:05;3.17;;;1.20;;
74674;SDS011;63200;48.810;12.352;2023-02-25T06:47:30;3.90;;;1.65;;
74674;SDS011;63200;48.810;12.352;2023-02-25T06:49:56;4.20;;;1.17;;
74674;SDS011;63200;48.810;12.352;2023-02-25T06:52:22;7.32;;;1.40;;
74674;SDS011;63200;48.810;12.352;2023-02-25T06:54:48;2.20;;;1.60;;
74674;SDS011;63200;48.810;12.352;2023-02-25T06:57:14;3.20;;;1.20;;
74674;SDS011;63200;48.810;12.352;2023-02-25T06:59:39;4.40;;;1.70;;
74674;SDS011;63200;48.810;12.352;2023-02-25T07:02:05;5.75;;;1.73;;
74674;SDS011;63200;48.810;12.352;2023-02-25T07:04:30;2.92;;;1.02;;
74674;SDS011;63200;48.810;12.352;2023-02-25T07:06:56;1.77;;;1.10;;
74674;SDS011;63200;48.810;12.352;2023-02-25T07:09:21;0.68;;;0.68;;
74674;SDS011;63200;48.810;12.352;2023-02-25T07:11:46;1.73;;;1.33;;
74674;SDS011;63200;48.810;12.352;2023-02-25T07:14:12;1.92;;;1.42;;
74674;SDS011;63200;48.810;12.352;2023-02-25T07:16:40;2.58;;;1.48;;
74674;SDS011;63200;48.810;12.352;2023-02-25T07:19:05;3.38;;;1.40;;
74674;SDS011;63200;48.810;12.352;2023-02-25T07:21:31;5.00;;;1.88;;
74674;SDS011;63200;48.810;12.352;2023-02-25T07:23:57;3.30;;;1.00;;
74674;SDS011;63200;48.810;12.352;2023-02-25T07:26:23;2.63;;;1.35;;
74674;SDS011;63200;48.810;12.352;2023-02-25T07:28:55;4.80;;;0.90;;
74674;SDS011;63200;48.810;12.352;2023-02-25T07:31:21;1.27;;;1.17;;
74674;SDS011;63200;48.810;12.352;2023-02-25T07:33:47;4.77;;;1.40;;
74674;SDS011;63200;48.810;12.352;2023-02-25T07:36:14;5.43;;;1.30;;
74674;SDS011;63200;48.810;12.352;2023-02-25T07:38:40;2.45;;;1.27;;
74674;SDS011;63200;48.810;12.352;2023-02-25T07:41:07;1.63;;;0.90;;
74674;SDS011;63200;48.810;12.352;2023-02-25T07:43:34;3.60;;;1.48;;
74674;SDS011;63200;48.810;12.352;2023-02-25T07:46:00;5.32;;;1.63;;
74674;SDS011;63200;48.810;12.352;2023-02-25T07:48:25;3.20;;;1.15;;
74674;SDS011;63200;48.810;12.352;2023-02-25T07:50:51;0.90;;;0.90;;
74674;SDS011;63200;48.810;12.352;2023-02-25T07:53:16;1.92;;;1.77;;
74674;SDS011;63200;48.810;12.352;2023-02-25T07:55:42;3.00;;;1.80;;
74674;SDS011;63200;48.810;12.352;2023-02-25T07:58:08;4.75;;;1.83;;
74674;SDS011;63200;48.810;12.352;2023-02-25T08:00:36;7.70;;;1.90;;
74674;SDS011;63200;48.810;12.352;2023-02-25T08:03:03;1.98;;;1.75;;
74674;SDS011;63200;48.810;12.352;2023-02-25T08:05:29;6.67;;;2.60;;
74674;SDS011;63200;48.810;12.352;2023-02-25T08:07:58;2.80;;;1.50;;
74674;SDS011;63200;48.810;12.352;2023-02-25T08:10:23;8.50;;;2.13;;
74674;SDS011;63200;48.810;12.352;2023-02-25T08:12:48;2.85;;;1.45;;
74674;SDS011;63200;48.810;12.352;2023-02-25T08:15:13;2.10;;;1.30;;
74674;SDS011;63200;48.810;12.352;2023-02-25T08:17:39;2.88;;;1.58;;
74674;SDS011;63200;48.810;12.352;2023-02-25T08:20:04;9.15;;;1.63;;
74674;SDS011;63200;48.810;12.352;2023-02-25T08:22:30;3.90;;;1.75;;
74674;SDS011;63200;48.810;12.352;2023-02-25T08:24:55;3.60;;;2.05;;
74674;SDS011;63200;48.810;12.352;2023-02-25T08:27:21;3.43;;;1.60;;
74674;SDS011;63200;48.810;12.352;2023-02-25T08:29:46;6.47;;;2.10;;
74674;SDS011;63200;48.810;12.352;2023-02-25T08:32:12;6.97;;;1.67;;
74674;SDS011;63200;48.810;12.352;2023-02-25T08:34:37;6.75;;;2.05;;
74674;SDS011;63200;48.810;12.352;2023-02-25T08:37:02;1.75;;;1.63;;
74674;SDS011;63200;48.810;12.352;2023-02-25T08:39:27;5.32;;;2.33;;
74674;SDS011;63200;48.810;12.352;2023-02-25T08:41:53;3.45;;;1.77;;
74674;SDS011;63200;48.810;12.352;2023-02-25T08:44:19;3.20;;;2.20;;
74674;SDS011;63200;48.810;12.352;2023-02-25T08:46:44;1.27;;;1.02;;
74674;SDS011;63200;48.810;12.352;2023-02-25T08:49:10;4.47;;;1.40;;
74674;SDS011;63200;48.810;12.352;2023-02-25T08:51:36;2.95;;;1.45;;
74674;SDS011;63200;48.810;12.352;2023-02-25T08:54:07;3.22;;;1.15;;
74674;SDS011;63200;48.810;12.352;2023-02-25T08:56:35;3.05;;;2.05;;
74674;SDS011;63200;48.810;12.352;2023-02-25T08:59:02;3.90;;;2.25;;
74674;SDS011;63200;48.810;12.352;2023-02-25T09:01:28;7.18;;;1.77;;
74674;SDS011;63200;48.810;12.352;2023-02-25T09:04:12;6.43;;;1.98;;
74674;SDS011;63200;48.810;12.352;2023-02-25T09:06:43;1.42;;;1.00;;
74674;SDS011;63200;48.810;12.352;2023-02-25T09:09:11;3.85;;;1.52;;
74674;SDS011;63200;48.810;12.352;2023-02-25T09:11:37;2.85;;;1.65;;
74674;SDS011;63200;48.810;12.352;2023-02-25T09:14:03;7.15;;;3.42;;
74674;SDS011;63200;48.810;12.352;2023-02-25T09:16:29;2.63;;;2.08;;
74674;SDS011;63200;48.810;12.352;2023-02-25T09:18:54;3.58;;;1.85;;
74674;SDS011;63200;48.810;12.352;2023-02-25T09:21:20;6.03;;;2.55;;
74674;SDS011;63200;48.810;12.352;2023-02-25T09:23:46;9.88;;;1.83;;
74674;SDS011;63200;48.810;12.352;2023-02-25T09:26:11;2.75;;;1.77;;
74674;SDS011;63200;48.810;12.352;2023-02-25T09:28:37;8.50;;;2.50;;
74674;SDS011;63200;48.810;12.352;2023-02-25T09:31:02;2.80;;;2.10;;
74674;SDS011;63200;48.810;12.352;2023-02-25T09:33:29;9.38;;;2.58;;
74674;SDS011;63200;48.810;12.352;2023-02-25T09:36:03;3.35;;;1.90;;
74674;SDS011;63200;48.810;12.352;2023-02-25T09:38:34;3.90;;;1.92;;
74674;SDS011;63200;48.810;12.352;2023-02-25T09:41:00;7.53;;;2.25;;
74674;SDS011;63200;48.810;12.352;2023-02-25T09:43:35;4.10;;;2.72;;
74674;SDS011;63200;48.810;12.352;2023-02-25T09:46:08;1.63;;;1.52;;
74674;SDS011;63200;48.810;12.352;2023-02-25T09:48:39;3.90;;;2.00;;
74674;SDS011;63200;48.810;12.352;2023-02-25T09:53:50;2.42;;;1.48;;
74674;SDS011;63200;48.810;12.352;2023-02-25T09:56:21;3.47;;;1.80;;
74674;SDS011;63200;48.810;12.352;2023-02-25T09:58:51;2.45;;;1.83;;
74674;SDS011;63200;48.810;12.352;2023-02-25T10:01:29;1.25;;;1.15;;
74674;SDS011;63200;48.810;12.352;2023-02-25T10:06:47;1.45;;;1.05;;
74674;SDS011;63200;48.810;12.352;2023-02-25T10:09:25;1.10;;;1.10;;
74674;SDS011;63200;48.810;12.352;2023-02-25T10:12:10;3.97;;;1.02;;
74674;SDS011;63200;48.810;12.352;2023-02-25T10:26:27;0.90;;;0.70;;
74674;SDS011;63200;48.810;12.352;2023-02-25T10:28:59;4.55;;;1.60;;
74674;SDS011;63200;48.810;12.352;2023-02-25T10:31:30;2.67;;;1.17;;
74674;SDS011;63200;48.810;12.352;2023-02-25T10:33:56;0.80;;;0.80;;
74674;SDS011;63200;48.810;12.352;2023-02-25T10:36:42;2.40;;;1.58;;
74674;SDS011;63200;48.810;12.352;2023-02-25T10:39:11;2.47;;;1.67;;
74674;SDS011;63200;48.810;12.352;2023-02-25T10:41:37;0.90;;;0.90;;
74674;SDS011;63200;48.810;12.352;2023-02-25T10:44:02;1.95;;;1.00;;
74674;SDS011;63200;48.810;12.352;2023-02-25T10:49:15;1.88;;;1.08;;
74674;SDS011;63200;48.810;12.352;2023-02-25T10:54:49;4.55;;;1.33;;
74674;SDS011;63200;48.810;12.352;2023-02-25T10:57:17;2.78;;;0.68;;
74674;SDS011;63200;48.810;12.352;2023-02-25T10:59:57;0.68;;;0.68;;
74674;SDS011;63200;48.810;12.352;2023-02-25T11:02:26;4.50;;;0.93;;
74674;SDS011;63200;48.810;12.352;2023-02-25T11:04:54;2.33;;;1.52;;
74674;SDS011;63200;48.810;12.352;2023-02-25T11:07:26;4.05;;;0.73;;
74674;SDS011;63200;48.810;12.352;2023-02-25T11:12:46;4.97;;;1.27;;
74674;SDS011;63200;48.810;12.352;2023-02-25T11:15:26;3.45;;;1.08;;
74674;SDS011;63200;48.810;12.352;2023-02-25T11:17:52;1.23;;;1.00;;
74674;SDS011;63200;48.810;12.352;2023-02-25T11:20:23;2.22;;;1.05;;
74674;SDS011;63200;48.810;12.352;2023-02-25T11:22:51;2.63;;;1.40;;
74674;SDS011;63200;48.810;12.352;2023-02-25T11:25:19;1.10;;;0.88;;
74674;SDS011;63200;48.810;12.352;2023-02-25T11:27:54;1.30;;;1.20;;
74674;SDS011;63200;48.810;12.352;2023-02-25T11:30:35;2.58;;;1.17;;
74674;SDS011;63200;48.810;12.352;2023-02-25T11:33:07;4.53;;;1.10;;
74674;SDS011;63200;48.810;12.352;2023-02-25T11:35:43;3.42;;;1.30;;
74674;SDS011;63200;48.810;12.352;2023-02-25T11:38:21;1.08;;;0.98;;
74674;SDS011;63200;48.810;12.352;2023-02-25T11:40:58;0.80;;;0.80;;
74674;SDS011;63200;48.810;12.352;2023-02-25T11:43:34;2.95;;;1.00;;
74674;SDS011;63200;48.810;12.352;2023-02-25T11:46:04;1.13;;;1.05;;
74674;SDS011;63200;48.810;12.352;2023-02-25T11:48:52;6.40;;;1.67;;
74674;SDS011;63200;48.810;12.352;2023-02-25T11:53:59;6.60;;;1.00;;
74674;SDS011;63200;48.810;12.352;2023-02-25T11:56:41;0.77;;;0.77;;
74674;SDS011;63200;48.810;12.352;2023-02-25T12:13:09;0.68;;;0.68;;
74674;SDS011;63200;48.810;12.352;2023-02-25T12:21:27;2.10;;;0.73;;
74674;SDS011;63200;48.810;12.352;2023-02-25T12:24:24;6.45;;;0.77;;
74674;SDS011;63200;48.810;12.352;2023-02-25T12:27:04;1.42;;;0.95;;
74674;SDS011;63200;48.810;12.352;2023-02-25T12:33:13;1.05;;;0.40;;
74674;SDS011;63200;48.810;12.352;2023-02-25T12:35:48;3.85;;;1.75;;
74674;SDS011;63200;48.810;12.352;2023-02-25T12:52:30;1.85;;;1.05;;
74674;SDS011;63200;48.810;12.352;2023-02-25T12:58:24;3.30;;;0.90;;
74674;SDS011;63200;48.810;12.352;2023-02-25T13:01:05;1.23;;;0.45;;
74674;SDS011;63200;48.810;12.352;2023-02-25T13:09:54;5.55;;;0.80;;
74674;SDS011;63200;48.810;12.352;2023-02-25T13:15:49;0.52;;;0.52;;
74674;SDS011;63200;48.810;12.352;2023-02-25T13:21:57;0.43;;;0.43;;
74674;SDS011;63200;48.810;12.352;2023-02-25T13:27:59;1.90;;;0.93;;
74674;SDS011;63200;48.810;12.352;2023-02-25T13:38:22;1.20;;;1.10;;
74674;SDS011;63200;48.810;12.352;2023-02-25T13:41:29;0.70;;;0.70;;
74674;SDS011;63200;48.810;12.352;2023-02-25T13:44:17;0.80;;;0.80;;
74674;SDS011;63200;48.810;12.352;2023-02-25T13:47:02;4.15;;;0.95;;
74674;SDS011;63200;48.810;12.352;2023-02-25T13:55:22;4.63;;;1.63;;
74674;SDS011;63200;48.810;12.352;2023-02-25T13:57:56;3.63;;;1.17;;
74674;SDS011;63200;48.810;12.352;2023-02-25T14:14:53;1.70;;;0.55;;
74674;SDS011;63200;48.810;12.352;2023-02-25T14:20:27;4.35;;;1.20;;
74674;SDS011;63200;48.810;12.352;2023-02-25T14:34:14;1.42;;;1.27;;
74674;SDS011;63200;48.810;12.352;2023-02-25T14:37:01;2.45;;;1.40;;
74674;SDS011;63200;48.810;12.352;2023-02-25T14:39:40;1.52;;;1.42;;
74674;SDS011;63200;48.810;12.352;2023-02-25T14:42:27;0.85;;;0.85;;
74674;SDS011;63200;48.810;12.352;2023-02-25T14:50:14;1.17;;;1.13;;
74674;SDS011;63200;48.810;12.352;2023-02-25T14:55:54;5.90;;;1.40;;
74674;SDS011;63200;48.810;12.352;2023-02-25T15:04:17;2.42;;;1.30;;
74674;SDS011;63200;48.810;12.352;2023-02-25T15:06:59;1.08;;;0.98;;
74674;SDS011;63200;48.810;12.352;2023-02-25T15:12:51;2.10;;;1.20;;
74674;SDS011;63200;48.810;12.352;2023-02-25T15:18:25;3.88;;;2.75;;
74674;SDS011;63200;48.810;12.352;2023-02-25T15:20:52;1.73;;;1.63;;
74674;SDS011;63200;48.810;12.352;2023-02-25T15:23:18;0.60;;;0.60;;
74674;SDS011;63200;48.810;12.352;2023-02-25T15:25:45;2.00;;;1.02;;
74674;SDS011;63200;48.810;12.352;2023-02-25T15:38:41;1.20;;;1.10;;
74674;SDS011;63200;48.810;12.352;2023-02-25T15:43:53;0.83;;;0.80;;
74674;SDS011;63200;48.810;12.352;2023-02-25T15:49:00;1.17;;;1.17;;
74674;SDS011;63200;48.810;12.352;2023-02-25T15:51:44;1.50;;;1.40;;
74674;SDS011;63200;48.810;12.352;2023-02-25T15:56:53;2.37;;;1.90;;
74674;SDS011;63200;48.810;12.352;2023-02-25T16:05:00;1.57;;;1.30;;
74674;SDS011;63200;48.810;12.352;2023-02-25T16:07:40;1.17;;;1.07;;
74674;SDS011;63200;48.810;12.352;2023-02-25T16:12:42;1.80;;;1.70;;
74674;SDS011;63200;48.810;12.352;2023-02-25T16:15:12;1.17;;;1.17;;
74674;SDS011;63200;48.810;12.352;2023-02-25T16:17:55;0.70;;;0.70;;
74674;SDS011;63200;48.810;12.352;2023-02-25T16:20:31;1.13;;;1.13;;
74674;SDS011;63200;48.810;12.352;2023-02-25T16:23:10;1.20;;;1.10;;
74674;SDS011;63200;48.810;12.352;2023-02-25T16:25:37;2.40;;;1.67;;
74674;SDS011;63200;48.810;12.352;2023-02-25T16:28:26;1.10;;;1.10;;
74674;SDS011;63200;48.810;12.352;2023-02-25T16:31:14;0.90;;;0.90;;
74674;SDS011;63200;48.810;12.352;2023-02-25T16:33:48;1.00;;;1.00;;
74674;SDS011;63200;48.810;12.352;2023-02-25T16:39:07;0.60;;;0.60;;
74674;SDS011;63200;48.810;12.352;2023-02-25T16:41:38;0.75;;;0.75;;
74674;SDS011;63200;48.810;12.352;2023-02-25T16:44:04;0.80;;;0.80;;
74674;SDS011;63200;48.810;12.352;2023-02-25T16:46:31;1.50;;;1.10;;
74674;SDS011;63200;48.810;12.352;2023-02-25T16:48:59;0.95;;;0.80;;
74674;SDS011;63200;48.810;12.352;2023-02-25T16:51:38;0.90;;;0.90;;
74674;SDS011;63200;48.810;12.352;2023-02-25T16:54:07;1.10;;;1.10;;
74674;SDS011;63200;48.810;12.352;2023-02-25T16:56:38;1.30;;;1.20;;
74674;SDS011;63200;48.810;12.352;2023-02-25T17:01:38;1.30;;;1.30;;
74674;SDS011;63200;48.810;12.352;2023-02-25T17:04:13;1.20;;;1.20;;
74674;SDS011;63200;48.810;12.352;2023-02-25T17:06:43;1.10;;;1.10;;
74674;SDS011;63200;48.810;12.352;2023-02-25T17:09:28;1.70;;;1.10;;
74674;SDS011;63200;48.810;12.352;2023-02-25T17:11:54;1.10;;;1.10;;
74674;SDS011;63200;48.810;12.352;2023-02-25T17:14:20;1.48;;;1.48;;
74674;SDS011;63200;48.810;12.352;2023-02-25T17:16:46;1.30;;;1.30;;
74674;SDS011;63200;48.810;12.352;2023-02-25T17:19:12;1.30;;;1.23;;
74674;SDS011;63200;48.810;12.352;2023-02-25T17:21:41;1.70;;;1.60;;
74674;SDS011;63200;48.810;12.352;2023-02-25T17:24:11;2.30;;;1.50;;
74674;SDS011;63200;48.810;12.352;2023-02-25T17:26:39;1.98;;;1.88;;
74674;SDS011;63200;48.810;12.352;2023-02-25T17:29:11;2.20;;;2.10;;
74674;SDS011;63200;48.810;12.352;2023-02-25T17:31:45;2.40;;;2.20;;
74674;SDS011;63200;48.810;12.352;2023-02-25T17:34:15;2.75;;;2.55;;
74674;SDS011;63200;48.810;12.352;2023-02-25T17:36:44;3.55;;;3.10;;
74674;SDS011;63200;48.810;12.352;2023-02-25T17:39:12;6.07;;;3.95;;
74674;SDS011;63200;48.810;12.352;2023-02-25T17:41:40;5.72;;;3.75;;
74674;SDS011;63200;48.810;12.352;2023-02-25T17:44:09;5.60;;;4.47;;
74674;SDS011;63200;48.810;12.352;2023-02-25T17:46:55;7.28;;;4.28;;
74674;SDS011;63200;48.810;12.352;2023-02-25T17:49:25;6.30;;;3.90;;
74674;SDS011;63200;48.810;12.352;2023-02-25T17:51:55;6.38;;;4.13;;
74674;SDS011;63200;48.810;12.352;2023-02-25T17:54:24;6.87;;;4.17;;
74674;SDS011;63200;48.810;12.352;2023-02-25T17:56:58;4.47;;;3.77;;
74674;SDS011;63200;48.810;12.352;2023-02-25T18:01:52;3.57;;;2.03;;
74674;SDS011;63200;48.810;12.352;2023-02-25T18:04:20;2.45;;;2.25;;
74674;SDS011;63200;48.810;12.352;2023-02-25T18:06:49;2.00;;;1.90;;